To NAV CANADA Home Page Login to a new session Search on AWWS site Feedback and Comments Disclaimer Vers la page française équivalente Tips FAQ What's new on the site To the Forecasts and Observations / NOTAM section To "File a Flight Plan" website Publications and other links Update of the User's profile FIC Telephone Numbers My Weather Data Folder Route Weather Data Regional Weather Data Local Weather Data To the Forecasts and Observations / NOTAM section
Request Generated 07/29/2016 at 07:48:26 UTC . Weather information available at that time is displayed.

METAR/TAF

THUNDER BAY/ON    (show WxCam)

METAR CYQT 290700Z 24004KT 15SM SKC 11/11 A3011 RMK SLP199=
METAR CYQT 290600Z 22004KT 15SM SKC 12/11 A3010 RMK SLP195=
METAR CYQT 290500Z 25003KT 15SM SKC 13/12 A3010 RMK SLP197=

TAF CYQT 290738Z 2908/2920 VRB03KT P6SM SKC
BECMG 2913/2915 11005KT FEW050
RMK NXT FCST BY 291400Z=
Your time UTC time
Weather data provided by Environment Canada and NAV CANADA